sensor_id;sensor_type;location;lat;lon;timestamp;temperature;humidity
26049;DHT22;13822;51.568;5.086;2022-07-17T00:04:07;16.90;99.90
26049;DHT22;13822;51.568;5.086;2022-07-17T00:09:48;16.80;99.90
26049;DHT22;13822;51.568;5.086;2022-07-17T00:15:15;16.80;99.90
26049;DHT22;13822;51.568;5.086;2022-07-17T00:20:23;16.70;99.90
26049;DHT22;13822;51.568;5.086;2022-07-17T00:31:14;16.60;99.90
26049;DHT22;13822;51.568;5.086;2022-07-17T00:37:10;16.50;99.90
26049;DHT22;13822;51.568;5.086;2022-07-17T00:42:19;16.50;99.90
26049;DHT22;13822;51.568;5.086;2022-07-17T00:47:43;16.50;99.90
26049;DHT22;13822;51.568;5.086;2022-07-17T00:53:02;16.60;99.90
26049;DHT22;13822;51.568;5.086;2022-07-17T00:58:24;16.60;99.90
26049;DHT22;13822;51.568;5.086;2022-07-17T01:03:50;16.50;99.90
26049;DHT22;13822;51.568;5.086;2022-07-17T01:14:43;16.30;99.90
26049;DHT22;13822;51.568;5.086;2022-07-17T01:20:00;16.30;99.90
26049;DHT22;13822;51.568;5.086;2022-07-17T01:25:25;16.20;99.90
26049;DHT22;13822;51.568;5.086;2022-07-17T01:30:34;16.10;99.90
26049;DHT22;13822;51.568;5.086;2022-07-17T01:36:10;16.10;99.90
26049;DHT22;13822;51.568;5.086;2022-07-17T01:47:03;16.10;99.90
26049;DHT22;13822;51.568;5.086;2022-07-17T04:58:06;14.90;99.90
26049;DHT22;13822;51.568;5.086;2022-07-17T05:03:07;14.90;99.90
26049;DHT22;13822;51.568;5.086;2022-07-17T05:08:09;14.90;99.90
26049;DHT22;13822;51.568;5.086;2022-07-17T05:13:11;14.90;99.90
26049;DHT22;13822;51.568;5.086;2022-07-17T05:18:14;14.90;99.90
26049;DHT22;13822;51.568;5.086;2022-07-17T05:23:16;14.90;99.90
26049;DHT22;13822;51.568;5.086;2022-07-17T05:28:17;14.90;99.90
26049;DHT22;13822;51.568;5.086;2022-07-17T05:33:19;14.90;99.90
26049;DHT22;13822;51.568;5.086;2022-07-17T05:38:21;14.90;99.90
26049;DHT22;13822;51.568;5.086;2022-07-17T05:43:23;15.00;99.90
26049;DHT22;13822;51.568;5.086;2022-07-17T05:48:25;15.00;99.90
26049;DHT22;13822;51.568;5.086;2022-07-17T05:53:27;15.10;99.90
26049;DHT22;13822;51.568;5.086;2022-07-17T05:58:29;15.20;99.90
26049;DHT22;13822;51.568;5.086;2022-07-17T06:03:31;15.30;99.90
26049;DHT22;13822;51.568;5.086;2022-07-17T06:08:33;15.40;99.90
26049;DHT22;13822;51.568;5.086;2022-07-17T06:13:35;15.40;99.90
26049;DHT22;13822;51.568;5.086;2022-07-17T06:18:37;15.50;99.90
26049;DHT22;13822;51.568;5.086;2022-07-17T06:23:38;15.50;99.90
26049;DHT22;13822;51.568;5.086;2022-07-17T06:28:40;15.70;99.90
26049;DHT22;13822;51.568;5.086;2022-07-17T06:33:42;15.80;99.90
26049;DHT22;13822;51.568;5.086;2022-07-17T06:38:44;15.80;99.90
26049;DHT22;13822;51.568;5.086;2022-07-17T06:43:46;15.90;99.90
26049;DHT22;13822;51.568;5.086;2022-07-17T06:48:48;16.00;99.90
26049;DHT22;13822;51.568;5.086;2022-07-17T06:53:53;16.10;99.90
26049;DHT22;13822;51.568;5.086;2022-07-17T06:58:55;16.30;99.90
26049;DHT22;13822;51.568;5.086;2022-07-17T07:03:56;16.30;99.90
26049;DHT22;13822;51.568;5.086;2022-07-17T07:08:58;16.40;99.90
26049;DHT22;13822;51.568;5.086;2022-07-17T07:14:00;16.50;99.90
26049;DHT22;13822;51.568;5.086;2022-07-17T07:19:02;16.60;99.90
26049;DHT22;13822;51.568;5.086;2022-07-17T07:24:04;16.70;99.90
26049;DHT22;13822;51.568;5.086;2022-07-17T07:29:06;16.70;99.90
26049;DHT22;13822;51.568;5.086;2022-07-17T07:34:15;16.90;99.90
26049;DHT22;13822;51.568;5.086;2022-07-17T07:39:17;17.00;99.90
26049;DHT22;13822;51.568;5.086;2022-07-17T07:44:19;17.10;99.90
26049;DHT22;13822;51.568;5.086;2022-07-17T07:49:32;17.20;99.90
26049;DHT22;13822;51.568;5.086;2022-07-17T07:54:40;17.40;99.90
26049;DHT22;13822;51.568;5.086;2022-07-17T07:59:42;17.40;99.90
26049;DHT22;13822;51.568;5.086;2022-07-17T08:04:44;17.60;99.90
26049;DHT22;13822;51.568;5.086;2022-07-17T08:09:46;17.60;99.90
26049;DHT22;13822;51.568;5.086;2022-07-17T08:14:50;17.70;99.90
26049;DHT22;13822;51.568;5.086;2022-07-17T08:19:52;17.90;99.90
26049;DHT22;13822;51.568;5.086;2022-07-17T08:24:54;18.00;99.90
26049;DHT22;13822;51.568;5.086;2022-07-17T08:29:56;18.10;99.90
26049;DHT22;13822;51.568;5.086;2022-07-17T08:35:02;18.30;99.90
26049;DHT22;13822;51.568;5.086;2022-07-17T08:40:05;18.50;99.90
26049;DHT22;13822;51.568;5.086;2022-07-17T08:45:07;18.60;99.90
26049;DHT22;13822;51.568;5.086;2022-07-17T08:50:10;18.70;99.90
26049;DHT22;13822;51.568;5.086;2022-07-17T08:55:13;18.80;99.90
26049;DHT22;13822;51.568;5.086;2022-07-17T09:00:21;18.90;99.90
26049;DHT22;13822;51.568;5.086;2022-07-17T09:05:25;19.10;99.90
26049;DHT22;13822;51.568;5.086;2022-07-17T09:10:34;19.10;99.90
26049;DHT22;13822;51.568;5.086;2022-07-17T09:15:42;19.30;99.90
26049;DHT22;13822;51.568;5.086;2022-07-17T09:20:50;19.40;99.90
26049;DHT22;13822;51.568;5.086;2022-07-17T09:25:56;19.60;99.90
26049;DHT22;13822;51.568;5.086;2022-07-17T09:30:58;19.70;99.90
26049;DHT22;13822;51.568;5.086;2022-07-17T09:36:08;19.90;99.90
26049;DHT22;13822;51.568;5.086;2022-07-17T09:51:34;20.40;92.20
26049;DHT22;13822;51.568;5.086;2022-07-17T09:56:40;20.60;83.90
26049;DHT22;13822;51.568;5.086;2022-07-17T10:01:43;20.80;94.70
26049;DHT22;13822;51.568;5.086;2022-07-17T10:06:46;21.00;90.50
26049;DHT22;13822;51.568;5.086;2022-07-17T10:11:48;21.20;88.90
26049;DHT22;13822;51.568;5.086;2022-07-17T10:16:50;21.50;85.80
26049;DHT22;13822;51.568;5.086;2022-07-17T10:22:00;21.70;98.20
26049;DHT22;13822;51.568;5.086;2022-07-17T10:27:07;22.00;86.30
26049;DHT22;13822;51.568;5.086;2022-07-17T10:32:19;22.20;94.00
26049;DHT22;13822;51.568;5.086;2022-07-17T10:37:23;22.50;90.40
26049;DHT22;13822;51.568;5.086;2022-07-17T10:47:53;23.10;77.00
26049;DHT22;13822;51.568;5.086;2022-07-17T10:52:56;23.50;95.40
26049;DHT22;13822;51.568;5.086;2022-07-17T10:58:03;23.90;84.40
26049;DHT22;13822;51.568;5.086;2022-07-17T11:03:12;24.10;56.80
26049;DHT22;13822;51.568;5.086;2022-07-17T11:08:14;24.30;52.70
26049;DHT22;13822;51.568;5.086;2022-07-17T11:13:16;24.70;68.60
26049;DHT22;13822;51.568;5.086;2022-07-17T11:18:19;25.00;47.10
26049;DHT22;13822;51.568;5.086;2022-07-17T11:23:24;25.20;43.60
26049;DHT22;13822;51.568;5.086;2022-07-17T11:28:32;25.50;56.40
26049;DHT22;13822;51.568;5.086;2022-07-17T11:33:55;25.90;47.00
26049;DHT22;13822;51.568;5.086;2022-07-17T11:39:04;26.10;56.30
26049;DHT22;13822;51.568;5.086;2022-07-17T11:44:14;26.40;54.30
26049;DHT22;13822;51.568;5.086;2022-07-17T11:49:30;26.70;51.30
26049;DHT22;13822;51.568;5.086;2022-07-17T11:54:44;27.00;59.90
26049;DHT22;13822;51.568;5.086;2022-07-17T11:59:46;27.40;42.40
26049;DHT22;13822;51.568;5.086;2022-07-17T12:04:55;27.60;50.40
26049;DHT22;13822;51.568;5.086;2022-07-17T12:09:58;27.80;41.90
26049;DHT22;13822;51.568;5.086;2022-07-17T12:15:00;28.00;45.70
26049;DHT22;13822;51.568;5.086;2022-07-17T12:20:05;28.20;45.60
26049;DHT22;13822;51.568;5.086;2022-07-17T12:25:09;28.50;44.60
26049;DHT22;13822;51.568;5.086;2022-07-17T12:30:11;28.70;36.60
26049;DHT22;13822;51.568;5.086;2022-07-17T12:35:13;28.80;35.40
26049;DHT22;13822;51.568;5.086;2022-07-17T12:40:16;28.80;35.40
26049;DHT22;13822;51.568;5.086;2022-07-17T12:45:18;29.00;37.90
26049;DHT22;13822;51.568;5.086;2022-07-17T12:50:20;29.20;37.30
26049;DHT22;13822;51.568;5.086;2022-07-17T12:55:24;29.30;43.20
26049;DHT22;13822;51.568;5.086;2022-07-17T13:00:27;29.40;34.70
26049;DHT22;13822;51.568;5.086;2022-07-17T13:05:29;29.30;37.70
26049;DHT22;13822;51.568;5.086;2022-07-17T13:10:33;29.20;34.80
26049;DHT22;13822;51.568;5.086;2022-07-17T13:15:36;29.40;34.30
26049;DHT22;13822;51.568;5.086;2022-07-17T13:20:39;29.50;34.60
26049;DHT22;13822;51.568;5.086;2022-07-17T13:25:41;29.30;27.30
26049;DHT22;13822;51.568;5.086;2022-07-17T13:30:46;29.40;29.90
26049;DHT22;13822;51.568;5.086;2022-07-17T13:35:49;29.40;29.00
26049;DHT22;13822;51.568;5.086;2022-07-17T13:40:51;29.50;27.70
26049;DHT22;13822;51.568;5.086;2022-07-17T13:45:53;29.60;30.50
26049;DHT22;13822;51.568;5.086;2022-07-17T13:50:54;29.80;30.70
26049;DHT22;13822;51.568;5.086;2022-07-17T13:55:56;30.10;33.20
26049;DHT22;13822;51.568;5.086;2022-07-17T14:00:58;30.10;28.10
26049;DHT22;13822;51.568;5.086;2022-07-17T14:06:00;30.10;30.90
26049;DHT22;13822;51.568;5.086;2022-07-17T14:11:02;30.20;28.20
26049;DHT22;13822;51.568;5.086;2022-07-17T14:16:04;30.00;28.20
26049;DHT22;13822;51.568;5.086;2022-07-17T14:21:06;30.00;32.30
26049;DHT22;13822;51.568;5.086;2022-07-17T14:26:08;29.90;30.60
26049;DHT22;13822;51.568;5.086;2022-07-17T14:31:10;30.00;29.90
26049;DHT22;13822;51.568;5.086;2022-07-17T14:36:12;30.10;28.70
26049;DHT22;13822;51.568;5.086;2022-07-17T14:41:14;30.00;28.70
26049;DHT22;13822;51.568;5.086;2022-07-17T14:46:16;29.80;29.40
26049;DHT22;13822;51.568;5.086;2022-07-17T14:51:19;29.90;26.50
26049;DHT22;13822;51.568;5.086;2022-07-17T14:56:21;29.90;26.90
26049;DHT22;13822;51.568;5.086;2022-07-17T15:01:23;29.90;28.10
26049;DHT22;13822;51.568;5.086;2022-07-17T15:06:25;30.00;29.00
26049;DHT22;13822;51.568;5.086;2022-07-17T15:11:27;29.80;27.70
26049;DHT22;13822;51.568;5.086;2022-07-17T15:16:29;29.70;27.60
26049;DHT22;13822;51.568;5.086;2022-07-17T15:21:31;29.60;27.30
26049;DHT22;13822;51.568;5.086;2022-07-17T15:26:53;29.40;27.90
26049;DHT22;13822;51.568;5.086;2022-07-17T15:31:54;29.20;27.60
26049;DHT22;13822;51.568;5.086;2022-07-17T15:36:57;29.20;27.80
26049;DHT22;13822;51.568;5.086;2022-07-17T15:41:59;29.10;28.40
26049;DHT22;13822;51.568;5.086;2022-07-17T15:47:00;29.00;27.20
26049;DHT22;13822;51.568;5.086;2022-07-17T15:52:02;28.90;28.40
26049;DHT22;13822;51.568;5.086;2022-07-17T15:57:05;28.90;26.20
26049;DHT22;13822;51.568;5.086;2022-07-17T16:02:06;28.80;27.80
26049;DHT22;13822;51.568;5.086;2022-07-17T16:07:09;28.70;29.30
26049;DHT22;13822;51.568;5.086;2022-07-17T16:12:12;28.80;28.40
26049;DHT22;13822;51.568;5.086;2022-07-17T16:17:14;28.70;27.20
26049;DHT22;13822;51.568;5.086;2022-07-17T16:22:16;28.50;28.60
26049;DHT22;13822;51.568;5.086;2022-07-17T16:27:18;28.40;28.10
26049;DHT22;13822;51.568;5.086;2022-07-17T16:32:20;28.20;27.50
26049;DHT22;13822;51.568;5.086;2022-07-17T16:37:22;28.00;28.20
26049;DHT22;13822;51.568;5.086;2022-07-17T16:42:24;28.00;28.80
26049;DHT22;13822;51.568;5.086;2022-07-17T16:47:26;27.90;29.00
26049;DHT22;13822;51.568;5.086;2022-07-17T16:52:28;28.00;29.80
26049;DHT22;13822;51.568;5.086;2022-07-17T16:57:30;28.00;30.00
26049;DHT22;13822;51.568;5.086;2022-07-17T17:02:33;28.00;30.00
26049;DHT22;13822;51.568;5.086;2022-07-17T17:07:36;28.00;30.50
26049;DHT22;13822;51.568;5.086;2022-07-17T17:12:38;28.10;30.10
26049;DHT22;13822;51.568;5.086;2022-07-17T17:17:42;28.20;30.50
26049;DHT22;13822;51.568;5.086;2022-07-17T17:22:44;28.10;27.80
26049;DHT22;13822;51.568;5.086;2022-07-17T17:27:46;27.80;28.10
26049;DHT22;13822;51.568;5.086;2022-07-17T17:32:49;27.60;28.50
26049;DHT22;13822;51.568;5.086;2022-07-17T17:37:50;27.40;29.10
26049;DHT22;13822;51.568;5.086;2022-07-17T17:42:52;27.30;29.80
26049;DHT22;13822;51.568;5.086;2022-07-17T17:47:54;27.30;30.00
26049;DHT22;13822;51.568;5.086;2022-07-17T17:52:56;27.10;30.20
26049;DHT22;13822;51.568;5.086;2022-07-17T17:57:58;26.90;30.40
26049;DHT22;13822;51.568;5.086;2022-07-17T18:03:00;26.70;31.00
26049;DHT22;13822;51.568;5.086;2022-07-17T18:08:02;26.60;31.40
26049;DHT22;13822;51.568;5.086;2022-07-17T18:13:05;26.50;31.70
26049;DHT22;13822;51.568;5.086;2022-07-17T18:18:08;26.40;31.90
26049;DHT22;13822;51.568;5.086;2022-07-17T18:23:10;26.40;31.80
26049;DHT22;13822;51.568;5.086;2022-07-17T18:28:12;26.20;31.70
26049;DHT22;13822;51.568;5.086;2022-07-17T18:33:14;26.10;32.70
26049;DHT22;13822;51.568;5.086;2022-07-17T18:38:16;26.00;32.50
26049;DHT22;13822;51.568;5.086;2022-07-17T18:43:18;26.00;33.00
26049;DHT22;13822;51.568;5.086;2022-07-17T18:48:21;25.90;32.80
26049;DHT22;13822;51.568;5.086;2022-07-17T18:53:22;25.80;33.10
26049;DHT22;13822;51.568;5.086;2022-07-17T18:58:26;25.70;34.10
26049;DHT22;13822;51.568;5.086;2022-07-17T19:03:30;25.60;34.40
26049;DHT22;13822;51.568;5.086;2022-07-17T19:08:32;25.50;35.00
26049;DHT22;13822;51.568;5.086;2022-07-17T19:13:34;25.40;35.00
26049;DHT22;13822;51.568;5.086;2022-07-17T19:18:36;25.30;34.70
26049;DHT22;13822;51.568;5.086;2022-07-17T19:23:38;25.20;35.40
26049;DHT22;13822;51.568;5.086;2022-07-17T19:28:42;25.00;34.70
26049;DHT22;13822;51.568;5.086;2022-07-17T19:33:44;25.00;35.30
26049;DHT22;13822;51.568;5.086;2022-07-17T19:38:46;24.90;36.10
26049;DHT22;13822;51.568;5.086;2022-07-17T19:43:48;24.70;35.80
26049;DHT22;13822;51.568;5.086;2022-07-17T19:48:50;24.50;36.00
26049;DHT22;13822;51.568;5.086;2022-07-17T19:53:52;24.40;36.30
26049;DHT22;13822;51.568;5.086;2022-07-17T19:58:54;24.30;37.20
26049;DHT22;13822;51.568;5.086;2022-07-17T20:03:56;24.10;36.30
26049;DHT22;13822;51.568;5.086;2022-07-17T20:08:58;24.10;36.60
26049;DHT22;13822;51.568;5.086;2022-07-17T20:14:00;23.90;37.30
26049;DHT22;13822;51.568;5.086;2022-07-17T20:19:02;23.80;37.20
26049;DHT22;13822;51.568;5.086;2022-07-17T20:24:04;23.70;38.40
26049;DHT22;13822;51.568;5.086;2022-07-17T20:29:06;23.70;38.00
26049;DHT22;13822;51.568;5.086;2022-07-17T20:34:09;23.50;40.20
26049;DHT22;13822;51.568;5.086;2022-07-17T20:39:11;23.40;38.90
26049;DHT22;13822;51.568;5.086;2022-07-17T20:44:13;23.40;39.50
26049;DHT22;13822;51.568;5.086;2022-07-17T20:49:15;23.30;40.30
